Minneapolis, Minnesota
Current Conditions -  °F | °C
As of 5:53 AM on Thursday 18 Dec 2014 (Local Time) from KMSP Reporting Station
Broken Clouds Broken Clouds  
Wind Chill: -10°   Ceiling: 2000
Heat Index: -10°   Visibility: 9mi
Dew Point: -12°   Wind: 0mph
Humidity: 84%   Direction: NA
Pressure: 30.3"   Gusts: NA
Location:  44.98°N, 93.26°W
Report Text: KMSP 181153Z 00000KT 9SM BKN020 M10/M12 A3030 RMK AO2 SLP276 4/001 I6000 T11001122 11094 21117 56013
Loading
Personal Weather Stations






























Interactive Weather Map New forecast layout! Learn more

10-Day Weather Forecast

Advertisements
Track Severe Weather on mobile